createdAt,value
2022-12-20T06:31:17.876Z,12.2
2022-12-20T06:34:06.226Z,11.9
2022-12-20T06:36:23.864Z,12.1
2022-12-20T06:38:43.275Z,12.2
2022-12-20T06:41:02.651Z,11.8
2022-12-20T06:43:22.174Z,12.1
2022-12-20T06:45:42.519Z,12.1
2022-12-20T06:48:45.228Z,12.2
2022-12-20T06:51:02.866Z,12.4
2022-12-20T06:53:21.336Z,12.2
2022-12-20T06:55:53.746Z,12.3
2022-12-20T06:58:11.647Z,12.5
2022-12-20T10:11:46.298Z,15.3
2022-12-20T10:13:59.823Z,16.3
2022-12-20T10:16:19.098Z,16.3
2022-12-20T10:18:38.227Z,16.1
2022-12-20T10:20:58.065Z,16
2022-12-20T10:23:16.365Z,16.7
2022-12-20T10:25:35.186Z,17.1
2022-12-20T10:27:53.979Z,16.7
2022-12-20T10:30:12.857Z,16
2022-12-20T10:32:29.525Z,17.3
2022-12-20T10:34:48.787Z,17.1
2022-12-20T10:37:07.478Z,16.6
2022-12-20T10:39:26.452Z,16.4
2022-12-20T10:42:09.949Z,16.9
2022-12-20T10:46:46.060Z,17.1
2022-12-20T10:49:04.392Z,17.4
2022-12-20T10:51:23.014Z,16.1
2022-12-20T10:55:58.948Z,17.1
2022-12-20T10:58:16.321Z,16.6
2022-12-20T11:00:33.748Z,16.9
2022-12-20T11:02:51.736Z,16.8
2022-12-20T11:05:09.249Z,16.9
2022-12-20T11:07:27.754Z,16.9
2022-12-20T11:10:05.625Z,15.9
2022-12-20T11:12:23.932Z,16.4
2022-12-20T11:14:41.859Z,16.8
2022-12-20T11:16:59.568Z,16.7
2022-12-20T11:19:17.049Z,16.5
2022-12-20T11:21:34.484Z,16.6
2022-12-20T11:23:52.135Z,16.6
2022-12-20T11:26:09.600Z,16.8
2022-12-20T11:28:27.046Z,16.5
2022-12-20T11:30:44.473Z,16.6
2022-12-20T11:33:02.017Z,16.8
2022-12-20T11:35:19.507Z,16.6
2022-12-20T11:37:37.092Z,16.4
2022-12-20T11:39:55.107Z,16.3
2022-12-20T11:42:11.812Z,16.3
2022-12-20T11:44:57.943Z,16.3
2022-12-20T11:47:06.852Z,16.4
2022-12-20T11:49:24.708Z,16.3
2022-12-20T11:51:42.815Z,15.8
2022-12-20T11:53:59.853Z,15.8
2022-12-20T11:56:17.100Z,15.8
2022-12-20T11:58:52.929Z,15.9
2022-12-20T12:01:09.269Z,15.9
2022-12-20T12:03:26.299Z,16
2022-12-20T12:05:42.996Z,15.9
2022-12-20T12:08:00.936Z,15.6
2022-12-20T12:10:18.991Z,15.8
2022-12-20T12:13:07.860Z,16.2
2022-12-20T12:15:26.154Z,15.6
2022-12-20T12:17:43.717Z,15.9
2022-12-20T12:20:00.773Z,15.7
2022-12-20T12:22:17.385Z,15.8
2022-12-20T12:24:33.838Z,15.7
2022-12-20T12:26:50.287Z,15.9
2022-12-20T12:29:06.675Z,16.2
2022-12-20T12:31:22.987Z,16.1
2022-12-20T12:33:39.382Z,16.3
2022-12-20T12:35:55.529Z,15.9
2022-12-20T12:38:11.457Z,16
2022-12-20T12:40:27.631Z,15.9
2022-12-20T12:42:43.729Z,15.8
2022-12-20T12:44:59.366Z,15.8
2022-12-20T12:47:15.260Z,15.6
2022-12-20T12:49:31.007Z,15.6
2022-12-20T12:51:46.174Z,15.8
2022-12-20T12:54:02.457Z,15.4
2022-12-20T12:56:45.782Z,15.4
2022-12-20T12:58:59.961Z,15.6
2022-12-20T13:01:15.662Z,15.6
2022-12-20T13:03:31.428Z,15.4
2022-12-20T13:05:47.045Z,15.6
2022-12-20T13:08:03.057Z,15.5
2022-12-20T13:10:18.407Z,15.6
2022-12-20T13:12:34.748Z,15.3
2022-12-20T13:14:50.484Z,15.6
2022-12-20T13:17:28.252Z,15.3
2022-12-20T13:19:43.856Z,15.5
2022-12-20T13:21:58.915Z,15.4
2022-12-20T13:24:15.057Z,15.5
2022-12-20T13:26:31.355Z,15.5
2022-12-20T13:28:46.418Z,15.2
2022-12-20T13:31:02.163Z,15.3
2022-12-20T13:33:17.840Z,15.3
2022-12-20T13:35:33.386Z,15.1
2022-12-20T13:37:54.275Z,15.2
2022-12-20T13:40:04.626Z,15.3
2022-12-20T13:42:20.255Z,15.4
2022-12-20T13:44:35.947Z,15.3
2022-12-20T13:46:51.551Z,15.3
2022-12-20T13:49:07.101Z,15.2
2022-12-20T13:51:22.679Z,15.1
2022-12-20T13:53:38.306Z,15.1
2022-12-20T13:55:53.934Z,15.1
2022-12-20T13:58:09.519Z,14.9
2022-12-20T14:00:25.240Z,15.1
2022-12-20T14:02:41.812Z,15.1
2022-12-20T14:04:56.586Z,14.9
2022-12-20T14:07:11.996Z,14.9
2022-12-20T14:09:28.152Z,15
2022-12-20T14:11:43.238Z,15
2022-12-20T14:13:58.213Z,14.9
2022-12-20T14:16:14.042Z,14.7
2022-12-20T14:18:29.129Z,14.9
2022-12-20T14:20:44.633Z,14.7
2022-12-20T14:23:04.912Z,14.6
2022-12-20T14:25:15.878Z,14.8
2022-12-20T14:27:30.848Z,14.8
2022-12-20T14:29:45.663Z,14.4
2022-12-20T14:32:00.561Z,14.4
2022-12-20T14:34:15.343Z,14.3
2022-12-20T14:36:30.266Z,14.4
2022-12-20T14:38:44.521Z,14.3
2022-12-20T14:41:01.143Z,14.3
2022-12-20T14:43:16.615Z,14.4
2022-12-20T14:45:31.501Z,14.6
2022-12-20T14:47:47.269Z,14.2
2022-12-20T14:50:02.924Z,14.4
2022-12-20T14:52:18.550Z,14.4
2022-12-20T14:55:13.478Z,14.4
2022-12-20T14:57:16.026Z,14.5
2022-12-20T14:59:30.984Z,14.5
2022-12-20T15:01:46.695Z,14.1
2022-12-20T15:04:02.327Z,14.4
2022-12-20T15:06:17.823Z,14.4
2022-12-20T15:08:32.818Z,14.5
2022-12-20T15:10:48.429Z,14.1
2022-12-20T15:13:03.405Z,14.3
2022-12-20T15:15:29.983Z,14.1
2022-12-20T15:17:44.854Z,13.9
2022-12-20T15:19:59.778Z,13.9
2022-12-20T15:22:14.656Z,13.9
2022-12-20T15:24:29.686Z,14
2022-12-20T15:26:44.202Z,14
2022-12-20T15:28:59.180Z,13.9
2022-12-20T15:31:14.071Z,13.9
2022-12-20T15:33:29.753Z,13.8
2022-12-20T15:35:44.707Z,14.1
2022-12-20T15:37:59.389Z,13.8
2022-12-20T15:40:30.027Z,13.8
2022-12-20T15:42:45.745Z,14.2
2022-12-20T15:45:01.496Z,13.9
2022-12-20T15:47:16.851Z,14
2022-12-20T15:49:32.499Z,14
2022-12-20T15:51:48.100Z,14.3
2022-12-20T15:54:03.641Z,14.1
2022-12-20T15:56:19.235Z,14.1
2022-12-20T15:58:34.754Z,14
2022-12-20T16:01:17.837Z,14
2022-12-20T16:03:33.566Z,14
2022-12-20T16:05:48.993Z,13.9
2022-12-20T16:08:04.598Z,13.9
2022-12-20T16:10:20.087Z,14.1
2022-12-20T16:12:35.591Z,14
2022-12-20T16:14:51.149Z,14
2022-12-20T16:17:06.707Z,13.8
2022-12-20T16:19:22.310Z,14
2022-12-20T16:21:37.843Z,13.9
2022-12-20T16:23:53.500Z,14.1
2022-12-20T16:26:09.001Z,13.9
2022-12-20T16:28:24.586Z,13.9
2022-12-20T16:30:40.054Z,13.8
2022-12-20T16:32:55.692Z,13.6
2022-12-20T16:35:11.488Z,13.9
2022-12-20T16:37:26.782Z,13.7
2022-12-20T16:39:41.713Z,13.7
2022-12-20T16:41:57.919Z,13.8
2022-12-20T16:44:13.491Z,13.6
2022-12-20T16:46:29.217Z,13.7
2022-12-20T16:48:44.545Z,13.8
2022-12-20T16:51:00.096Z,13.7
2022-12-20T16:53:15.770Z,13.8
2022-12-20T16:56:15.465Z,14
2022-12-20T16:58:52.559Z,13.8
2022-12-20T17:01:10.039Z,13.7
2022-12-20T17:03:22.289Z,13.8
2022-12-20T17:05:37.693Z,13.8
2022-12-20T17:07:53.322Z,13.7
2022-12-20T17:11:10.956Z,13.8
2022-12-20T17:13:26.550Z,13.9
2022-12-20T17:15:42.117Z,13.7
2022-12-20T17:17:57.736Z,13.8
2022-12-20T17:20:13.233Z,13.7
2022-12-20T17:22:58.210Z,13.7
2022-12-20T17:25:31.426Z,13.5
2022-12-20T17:27:46.819Z,13.6
2022-12-20T17:30:02.347Z,13.6
2022-12-20T17:32:17.901Z,13.6
2022-12-20T17:34:33.538Z,13.6
2022-12-20T17:36:49.065Z,13.6
2022-12-20T17:39:04.629Z,13.6
2022-12-20T17:41:20.268Z,13.5
2022-12-20T17:43:35.725Z,13.6
2022-12-20T17:45:51.438Z,13.7
2022-12-20T17:48:06.951Z,13.6
2022-12-20T17:50:22.431Z,13.6
2022-12-20T17:52:38.628Z,13.8
2022-12-20T17:54:53.631Z,13.7
2022-12-20T17:57:09.125Z,13.5
2022-12-20T17:59:24.652Z,13.4
2022-12-20T18:01:40.301Z,13.5
2022-12-20T18:04:21.703Z,13.4
2022-12-20T18:06:37.122Z,13.6
2022-12-20T18:08:52.707Z,13.4
2022-12-20T18:11:08.236Z,13.5
2022-12-20T18:13:23.800Z,13.5
2022-12-20T18:15:39.320Z,13.4
2022-12-20T18:17:54.892Z,13.6
2022-12-20T18:20:10.483Z,13.6
2022-12-20T18:22:26.132Z,13.4
2022-12-20T18:24:41.594Z,13.5
2022-12-20T18:26:57.105Z,13.5
2022-12-20T18:29:12.796Z,13.4
2022-12-20T18:31:28.331Z,13.5
2022-12-20T18:33:43.774Z,13.4
2022-12-20T18:35:59.559Z,13.6
2022-12-20T18:38:14.921Z,13.3
2022-12-20T18:40:29.871Z,13.5
2022-12-20T18:42:46.043Z,13.4
2022-12-20T18:45:02.154Z,13.6
2022-12-20T18:47:17.221Z,13.4
2022-12-20T18:49:33.016Z,13.4
2022-12-20T18:51:48.760Z,13.4
2022-12-20T18:54:04.467Z,13.1
2022-12-20T18:56:20.141Z,13.2
2022-12-20T18:58:36.374Z,13.3
2022-12-20T19:00:51.605Z,13.4
2022-12-20T19:03:07.395Z,13.4
2022-12-20T19:05:23.018Z,13.3
2022-12-20T19:07:38.667Z,13.2
2022-12-20T19:09:54.402Z,13.2
2022-12-20T19:12:09.998Z,13.2
2022-12-20T19:14:25.806Z,13.3
2022-12-20T19:16:41.485Z,13.3
2022-12-20T19:18:57.212Z,13.1
2022-12-20T19:21:13.113Z,13.2
2022-12-20T19:23:28.496Z,13.2
2022-12-20T19:25:44.029Z,13.2
2022-12-20T19:27:59.988Z,13.3
2022-12-20T19:30:15.665Z,13.1
2022-12-20T19:32:31.390Z,13.2
2022-12-20T19:34:47.116Z,13.3
2022-12-20T19:37:52.205Z,13.2
2022-12-20T19:40:07.776Z,13.1
2022-12-20T19:42:41.157Z,13.2
2022-12-20T19:44:56.857Z,13.2
2022-12-20T19:47:12.523Z,13.3
2022-12-20T19:49:28.237Z,13.1
2022-12-20T19:51:43.897Z,13
2022-12-20T19:53:59.723Z,13.1
2022-12-20T19:56:15.657Z,13.1
2022-12-20T19:58:30.952Z,13
2022-12-20T20:00:46.650Z,13.1
2022-12-20T20:03:02.574Z,13.2
2022-12-20T20:05:18.059Z,13.3
2022-12-20T20:07:33.705Z,13.1
2022-12-20T20:09:49.371Z,13.1
2022-12-20T20:12:05.049Z,13.1
2022-12-20T20:14:20.836Z,13.3
2022-12-20T20:16:36.695Z,13.2
2022-12-20T20:18:52.161Z,13.1
2022-12-20T20:21:07.838Z,13.1
2022-12-20T20:23:22.706Z,13.2
2022-12-20T20:25:38.417Z,12.8
2022-12-20T20:27:54.227Z,13.1
2022-12-20T20:30:09.937Z,13.1
2022-12-20T20:32:25.642Z,13.1
2022-12-20T20:34:41.424Z,13.1
2022-12-20T20:36:57.015Z,13.2
2022-12-20T20:39:12.761Z,13.1
2022-12-20T20:41:28.455Z,12.9
2022-12-20T20:43:44.072Z,12.9
2022-12-20T20:46:00.023Z,12.9
2022-12-20T20:48:15.548Z,12.9
2022-12-20T20:50:31.138Z,13
2022-12-20T20:52:46.858Z,13
2022-12-20T20:55:02.483Z,13.1
2022-12-20T20:57:18.186Z,13.1
2022-12-20T20:59:33.843Z,12.9
2022-12-20T21:01:49.089Z,12.9
2022-12-20T21:04:03.779Z,12.8
2022-12-20T21:07:38.107Z,12.8
2022-12-20T21:09:53.827Z,12.9
2022-12-20T21:12:09.848Z,12.9
2022-12-20T21:14:43.745Z,12.9
2022-12-20T21:17:10.736Z,12.7
2022-12-20T21:19:26.379Z,13
2022-12-20T21:21:42.377Z,12.9
2022-12-20T21:23:58.052Z,12.9
2022-12-20T21:26:13.776Z,12.9
2022-12-20T21:28:28.912Z,13
2022-12-20T21:30:44.713Z,12.7
2022-12-20T21:33:00.609Z,12.8
2022-12-20T21:35:16.323Z,12.9
2022-12-20T21:37:32.283Z,12.7
2022-12-20T21:39:47.928Z,12.9
2022-12-20T21:42:04.198Z,13.1
2022-12-20T21:44:19.536Z,12.8
2022-12-20T21:46:35.297Z,12.9
2022-12-20T21:48:50.437Z,13
2022-12-20T21:51:05.270Z,12.7
2022-12-20T21:53:21.254Z,12.6
2022-12-20T21:55:36.224Z,12.8
2022-12-20T21:57:51.283Z,12.6
2022-12-20T22:00:07.102Z,12.6
2022-12-20T22:02:23.257Z,12.8
2022-12-20T22:04:38.845Z,12.8
2022-12-20T22:06:53.990Z,12.8
2022-12-20T22:09:08.759Z,12.6
2022-12-20T22:11:24.563Z,12.5
2022-12-20T22:13:41.756Z,12.9
2022-12-20T22:15:54.583Z,12.6
2022-12-20T22:18:09.675Z,12.6
2022-12-20T22:20:24.448Z,12.6
2022-12-20T22:22:39.456Z,12.6
2022-12-20T22:24:54.372Z,12.6
2022-12-20T22:27:11.544Z,12.5
2022-12-20T22:29:24.350Z,12.6
2022-12-20T22:31:39.569Z,12.6
2022-12-20T22:33:54.224Z,12.6
2022-12-20T22:36:09.074Z,12.4
2022-12-20T22:38:25.137Z,12.6
2022-12-20T22:40:40.062Z,12.6
2022-12-20T22:42:55.173Z,12.7
2022-12-20T22:45:09.973Z,12.5
2022-12-20T22:48:31.774Z,12.4
2022-12-20T22:50:46.949Z,12.7
2022-12-20T22:53:01.843Z,12.4
2022-12-20T22:55:16.505Z,12.5
2022-12-20T22:57:32.177Z,12.4
2022-12-20T22:59:47.669Z,12.6
2022-12-20T23:02:02.126Z,12.4
2022-12-20T23:04:16.809Z,12.4
2022-12-20T23:06:31.631Z,12.3
2022-12-20T23:08:47.501Z,12.4
2022-12-20T23:11:02.424Z,12.8
2022-12-20T23:13:17.243Z,12.4
2022-12-20T23:16:20.660Z,12.4
2022-12-20T23:18:35.673Z,12.4
2022-12-20T23:20:50.143Z,12.4
2022-12-20T23:23:05.029Z,12.4
2022-12-20T23:25:19.813Z,12.4
2022-12-20T23:27:34.694Z,12.4
2022-12-20T23:29:49.593Z,12.3
2022-12-20T23:32:04.417Z,12.4
2022-12-20T23:34:20.106Z,12.4
2022-12-20T23:36:35.107Z,12.8
2022-12-20T23:38:50.161Z,12.4
2022-12-20T23:41:04.706Z,12.4
2022-12-20T23:43:19.576Z,12.3
2022-12-20T23:45:34.484Z,12.4
2022-12-20T23:47:49.308Z,12.4
2022-12-20T23:50:04.086Z,12.4
2022-12-20T23:52:18.984Z,12.4
2022-12-20T23:54:34.804Z,12.3
2022-12-20T23:56:49.624Z,12.6
2022-12-20T23:59:04.711Z,12.4
